createdAt,value
2022-09-05T00:02:05.093Z,21.08
2022-09-05T00:04:41.924Z,21.06
2022-09-05T00:07:59.427Z,21.03
2022-09-05T00:11:39.555Z,20.97
2022-09-05T00:13:52.839Z,20.93
2022-09-05T00:16:37.585Z,20.86
2022-09-05T00:24:18.693Z,20.81
2022-09-05T00:24:29.590Z,20.74
2022-09-05T00:25:31.755Z,20.72
2022-09-05T00:28:25.746Z,20.69
2022-09-05T00:31:54.006Z,20.67
2022-09-05T00:34:16.477Z,20.66
2022-09-05T00:36:46.980Z,20.67
2022-09-05T00:39:20.317Z,20.66
2022-09-05T00:41:52.663Z,20.65
2022-09-05T00:44:22.395Z,20.64
2022-09-05T00:47:10.986Z,20.64
2022-09-05T00:49:45.363Z,20.62
2022-09-05T00:52:33.427Z,20.62
2022-09-05T00:55:28.016Z,20.60
2022-09-05T00:58:00.302Z,20.57
2022-09-05T01:00:51.450Z,20.53
2022-09-05T01:03:32.054Z,20.51
2022-09-05T01:06:26.626Z,20.52
2022-09-05T01:09:22.462Z,20.49
2022-09-05T01:12:10.137Z,20.46
2022-09-05T01:14:48.506Z,20.46
2022-09-05T01:17:45.602Z,20.45
2022-09-05T01:20:38.088Z,20.41
2022-09-05T01:23:15.403Z,20.38
2022-09-05T01:26:08.917Z,20.37
2022-09-05T01:29:15.254Z,20.33
2022-09-05T01:31:45.996Z,20.29
2022-09-05T01:34:32.590Z,20.28
2022-09-05T01:37:33.100Z,20.24
2022-09-05T01:40:25.675Z,20.20
2022-09-05T01:43:01.413Z,20.20
2022-09-05T01:45:46.819Z,20.19
2022-09-05T01:48:39.738Z,20.19
2022-09-05T01:51:31.424Z,20.19
2022-09-05T01:54:32.221Z,20.16
2022-09-05T01:57:01.418Z,20.14
2022-09-05T01:59:55.620Z,20.10
2022-09-05T02:02:28.280Z,20.06
2022-09-05T02:05:09.810Z,20.02
2022-09-05T02:07:49.843Z,19.99
2022-09-05T02:10:40.017Z,19.95
2022-09-05T02:13:34.196Z,19.91
2022-09-05T02:16:16.481Z,19.88
2022-09-05T02:19:14.965Z,19.88
2022-09-05T02:21:57.610Z,19.82
2022-09-05T02:24:36.345Z,19.79
2022-09-05T02:28:02.198Z,19.76
2022-09-05T02:30:18.626Z,19.72
2022-09-05T02:33:02.741Z,19.69
2022-09-05T02:35:35.442Z,19.66
2022-09-05T02:41:40.517Z,19.63
2022-09-05T02:45:13.046Z,19.58
2022-09-05T02:45:13.048Z,19.59
2022-09-05T02:47:34.418Z,19.52
2022-09-05T02:56:01.530Z,19.47
2022-09-05T02:57:35.756Z,19.36
2022-09-05T02:57:36.107Z,19.41
2022-09-05T02:59:13.668Z,19.32
2022-09-05T03:01:57.258Z,19.24
2022-09-05T03:04:39.382Z,19.20
2022-09-05T03:07:17.253Z,19.11
2022-09-05T03:09:50.200Z,19.15
2022-09-05T03:12:35.493Z,19.17
2022-09-05T03:15:45.710Z,19.14
2022-09-05T03:18:49.657Z,19.14
2022-09-05T03:21:37.942Z,19.12
2022-09-05T03:24:41.600Z,19.10
2022-09-05T03:27:51.367Z,19.07
2022-09-05T03:30:32.525Z,19.05
2022-09-05T03:33:37.173Z,19.01
2022-09-05T03:36:37.690Z,18.97
2022-09-05T03:39:32.353Z,18.95
2022-09-05T03:42:19.204Z,18.92
2022-09-05T03:45:01.926Z,18.87
2022-09-05T03:48:01.685Z,18.82
2022-09-05T03:57:04.529Z,18.79
2022-09-05T03:57:27.375Z,18.67
2022-09-05T03:57:28.228Z,18.71
2022-09-05T04:00:07.820Z,18.64
2022-09-05T04:08:09.672Z,18.63
2022-09-05T04:08:23.703Z,18.64
2022-09-05T04:09:09.645Z,18.66
2022-09-05T04:11:50.335Z,18.67
2022-09-05T04:14:49.782Z,18.67
2022-09-05T04:17:31.138Z,18.66
2022-09-05T04:20:14.489Z,18.67
2022-09-05T04:22:40.985Z,18.68
2022-09-05T04:25:26.406Z,18.69
2022-09-05T04:28:18.159Z,18.71
2022-09-05T04:30:52.833Z,18.71
2022-09-05T04:33:36.048Z,18.71
2022-09-05T04:36:30.033Z,18.69
2022-09-05T04:39:08.225Z,18.66
2022-09-05T04:41:40.390Z,18.63
2022-09-05T04:44:14.789Z,18.64
2022-09-05T04:46:53.622Z,18.66
2022-09-05T04:49:39.167Z,18.66
2022-09-05T04:52:49.457Z,18.64
2022-09-05T04:55:19.517Z,18.63
2022-09-05T04:57:52.745Z,18.63
2022-09-05T05:06:03.838Z,18.62
2022-09-05T05:06:14.283Z,18.62
2022-09-05T05:06:38.176Z,18.62
2022-09-05T05:09:14.017Z,18.58
2022-09-05T05:18:01.320Z,18.60
2022-09-05T05:18:16.392Z,18.64
2022-09-05T05:18:49.043Z,18.65
2022-09-05T05:21:07.387Z,18.66
2022-09-05T05:23:45.180Z,18.67
2022-09-05T05:26:22.815Z,18.67
2022-09-05T05:28:53.819Z,18.68
2022-09-05T05:31:26.759Z,18.69
2022-09-05T05:33:54.224Z,18.71
2022-09-05T05:36:27.995Z,18.67
2022-09-05T05:39:07.080Z,18.68
2022-09-05T05:41:39.399Z,18.71
2022-09-05T05:44:18.029Z,18.72
2022-09-05T05:46:54.893Z,18.75
2022-09-05T05:49:44.429Z,18.82
2022-09-05T05:52:41.621Z,18.85
2022-09-05T05:55:51.314Z,18.92
2022-09-05T05:58:37.299Z,18.99
2022-09-05T06:01:06.732Z,19.01
2022-09-05T06:04:01.777Z,19.13
2022-09-05T06:07:02.366Z,19.35
2022-09-05T06:14:53.052Z,19.56
2022-09-05T06:14:59.172Z,19.60
2022-09-05T06:16:39.472Z,19.61
2022-09-05T06:20:45.905Z,19.63
2022-09-05T06:23:33.515Z,19.68
2022-09-05T06:26:17.853Z,19.71
2022-09-05T06:28:56.314Z,19.76
2022-09-05T06:31:34.893Z,19.85
2022-09-05T06:34:46.561Z,19.97
2022-09-05T06:37:31.861Z,20.10
2022-09-05T06:40:11.860Z,20.25
2022-09-05T06:42:57.317Z,20.34
2022-09-05T06:45:58.699Z,20.38
2022-09-05T06:48:46.034Z,20.53
2022-09-05T06:51:44.235Z,20.60
2022-09-05T06:54:54.306Z,20.76
2022-09-05T06:57:44.096Z,20.90
2022-09-05T07:00:23.688Z,21.11
2022-09-05T07:03:24.226Z,21.36
2022-09-05T07:05:55.787Z,21.62
2022-09-05T07:08:36.831Z,21.89
2022-09-05T07:11:16.322Z,22.29
2022-09-05T07:14:03.876Z,22.65
2022-09-05T07:16:37.306Z,22.94
2022-09-05T07:19:17.171Z,23.34
2022-09-05T07:22:04.324Z,23.56
2022-09-05T07:24:54.337Z,23.91
2022-09-05T07:27:29.781Z,24.20
2022-09-05T07:30:01.835Z,24.40
2022-09-05T07:32:40.112Z,24.66
2022-09-05T07:35:12.022Z,24.91
2022-09-05T07:37:42.196Z,25.20
2022-09-05T07:40:26.305Z,25.29
2022-09-05T07:43:09.297Z,25.48
2022-09-05T07:45:55.574Z,25.67
2022-09-05T07:48:35.350Z,25.90
2022-09-05T07:56:49.624Z,26.05
2022-09-05T07:56:56.723Z,26.13
2022-09-05T07:59:54.861Z,26.48
2022-09-05T08:02:21.521Z,26.63
2022-09-05T08:04:48.025Z,26.77
2022-09-05T08:07:49.114Z,27.04
2022-09-05T08:10:31.012Z,27.22
2022-09-05T08:13:24.693Z,27.47
2022-09-05T08:16:13.594Z,27.54
2022-09-05T08:19:02.874Z,27.63
2022-09-05T08:21:41.868Z,27.80
2022-09-05T08:24:30.110Z,27.93
2022-09-05T08:27:22.062Z,28.01
2022-09-05T08:30:26.182Z,27.89
2022-09-05T08:33:10.465Z,28.07
2022-09-05T08:35:46.373Z,28.43
2022-09-05T08:38:15.476Z,28.62
2022-09-05T08:40:52.089Z,28.70
2022-09-05T08:46:37.001Z,28.91
2022-09-05T08:47:18.198Z,29.25
2022-09-05T08:50:20.824Z,29.45
2022-09-05T08:53:03.547Z,29.88
2022-09-05T08:56:05.255Z,30.29
2022-09-05T08:58:49.837Z,30.50
2022-09-05T09:02:45.172Z,30.81
2022-09-05T09:05:01.504Z,31.13
2022-09-05T09:07:51.600Z,31.40
2022-09-05T09:10:25.978Z,31.60
2022-09-05T09:13:21.318Z,31.62
2022-09-05T09:16:10.819Z,31.85
2022-09-05T09:18:47.389Z,32.00
2022-09-05T09:21:35.807Z,32.27
2022-09-05T09:24:22.397Z,32.50
2022-09-05T09:26:56.057Z,32.62
2022-09-05T09:29:23.953Z,32.67
2022-09-05T09:32:00.670Z,32.67
2022-09-05T09:34:27.100Z,32.58
2022-09-05T09:37:11.804Z,32.72
2022-09-05T09:39:48.175Z,32.99
2022-09-05T09:42:45.341Z,33.13
2022-09-05T09:45:29.173Z,33.35
2022-09-05T09:48:16.248Z,33.62
2022-09-05T09:51:05.598Z,33.74
2022-09-05T09:54:06.158Z,34.02
2022-09-05T09:56:55.966Z,34.12
2022-09-05T09:59:54.694Z,34.36
2022-09-05T10:04:17.440Z,34.71
2022-09-05T10:10:39.044Z,35.06
2022-09-05T10:10:54.452Z,34.91
2022-09-05T10:12:03.079Z,34.92
2022-09-05T10:14:58.391Z,35.30
2022-09-05T10:17:35.884Z,35.50
2022-09-05T10:20:21.981Z,35.65
2022-09-05T10:23:25.270Z,35.75
2022-09-05T10:26:47.347Z,35.66
2022-09-05T10:30:04.612Z,35.65
2022-09-05T10:35:11.522Z,36.02
2022-09-05T10:35:53.411Z,36.18
2022-09-05T10:38:44.169Z,36.32
2022-09-05T10:41:21.372Z,36.36
2022-09-05T10:44:02.148Z,36.25
2022-09-05T10:46:54.360Z,36.35
2022-09-05T10:49:30.382Z,36.73
2022-09-05T10:52:18.438Z,37.06
2022-09-05T10:54:48.729Z,37.43
2022-09-05T10:57:35.525Z,37.62
2022-09-05T11:02:20.636Z,37.53
2022-09-05T11:03:23.385Z,37.69
2022-09-05T11:05:59.011Z,37.82
2022-09-05T11:08:45.993Z,38.21
2022-09-05T11:11:34.272Z,38.58
2022-09-05T11:14:27.087Z,38.76
2022-09-05T11:17:06.089Z,38.65
2022-09-05T11:19:54.373Z,38.68
2022-09-05T11:22:24.538Z,38.93
2022-09-05T11:24:57.155Z,39.23
2022-09-05T11:27:40.258Z,39.23
2022-09-05T11:30:30.166Z,38.97
2022-09-05T11:39:46.034Z,38.51
2022-09-05T11:40:08.377Z,38.77
2022-09-05T11:40:31.208Z,38.49
2022-09-05T11:43:21.522Z,38.22
2022-09-05T11:46:08.631Z,38.63
2022-09-05T11:48:53.966Z,38.43
2022-09-05T11:51:33.554Z,38.42
2022-09-05T11:54:37.685Z,38.24
2022-09-05T11:57:33.188Z,38.43
2022-09-05T12:00:30.924Z,38.45
2022-09-05T12:03:58.230Z,37.95
2022-09-05T12:06:16.447Z,37.72
2022-09-05T12:08:54.590Z,37.00
2022-09-05T12:11:49.024Z,37.66
2022-09-05T12:14:33.238Z,38.06
2022-09-05T12:17:35.554Z,38.10
2022-09-05T12:20:17.226Z,38.63
2022-09-05T12:23:01.356Z,38.53
2022-09-05T12:27:40.298Z,38.52
2022-09-05T12:29:33.432Z,38.04
2022-09-05T12:34:05.244Z,37.45
2022-09-05T12:36:04.559Z,36.85
2022-09-05T12:40:54.910Z,36.77
2022-09-05T12:41:42.711Z,37.29
2022-09-05T12:44:39.564Z,37.74
2022-09-05T12:47:19.545Z,38.05
2022-09-05T12:50:15.134Z,38.23
2022-09-05T12:52:46.189Z,38.10
2022-09-05T12:55:26.726Z,38.30
2022-09-05T13:02:26.406Z,38.48
2022-09-05T13:03:11.949Z,38.69
2022-09-05T13:04:13.024Z,38.61
2022-09-05T13:06:42.577Z,38.58
2022-09-05T13:09:23.436Z,38.65
2022-09-05T13:14:56.090Z,38.66
2022-09-05T13:15:23.198Z,37.70
2022-09-05T13:18:37.321Z,37.09
2022-09-05T13:21:08.454Z,37.56
2022-09-05T13:23:58.189Z,37.79
2022-09-05T13:26:51.142Z,38.09
2022-09-05T13:29:22.039Z,38.26
2022-09-05T13:37:59.668Z,38.25
2022-09-05T13:38:14.306Z,38.27
2022-09-05T13:38:29.151Z,37.86
2022-09-05T13:40:47.267Z,37.69
2022-09-05T13:43:26.386Z,37.74
2022-09-05T13:46:10.681Z,37.81
2022-09-05T13:51:53.642Z,37.41
2022-09-05T13:54:36.225Z,37.01
2022-09-05T13:57:32.239Z,36.67
2022-09-05T14:00:28.155Z,36.94
2022-09-05T14:03:39.196Z,37.17
2022-09-05T14:06:47.811Z,37.28
2022-09-05T14:09:39.430Z,36.61
2022-09-05T14:12:11.460Z,36.34
2022-09-05T14:15:12.664Z,35.84
2022-09-05T14:18:20.371Z,35.64
2022-09-05T14:21:15.080Z,35.86
2022-09-05T14:23:55.945Z,35.80
2022-09-05T14:26:27.992Z,35.89
2022-09-05T14:28:58.625Z,35.69
2022-09-05T14:37:36.619Z,35.64
2022-09-05T14:37:48.611Z,35.48
2022-09-05T14:38:09.590Z,35.26
2022-09-05T14:41:27.955Z,35.10
2022-09-05T14:44:13.010Z,35.04
2022-09-05T14:46:54.854Z,34.88
2022-09-05T14:49:40.538Z,34.62
2022-09-05T14:52:25.289Z,34.34
2022-09-05T15:02:39.167Z,34.11
2022-09-05T15:02:41.211Z,34.04
2022-09-05T15:06:28.115Z,33.76
2022-09-05T15:11:25.605Z,33.84
2022-09-05T15:12:25.995Z,33.91
2022-09-05T15:14:36.165Z,33.81
2022-09-05T15:17:05.675Z,33.74
2022-09-05T15:20:06.737Z,33.69
2022-09-05T15:22:43.240Z,33.66
2022-09-05T15:25:22.038Z,33.60
2022-09-05T15:27:49.483Z,33.56
2022-09-05T15:30:23.154Z,33.52
2022-09-05T15:33:26.333Z,33.48
2022-09-05T15:35:53.064Z,33.45
2022-09-05T15:38:30.381Z,33.38
2022-09-05T15:41:20.543Z,33.40
2022-09-05T15:44:09.387Z,33.30
2022-09-05T15:46:42.691Z,33.22
2022-09-05T15:49:22.016Z,33.12
2022-09-05T15:51:51.657Z,33.06
2022-09-05T15:54:37.776Z,33.02
2022-09-05T15:57:08.954Z,32.98
2022-09-05T15:59:48.057Z,32.85
2022-09-05T16:02:30.222Z,32.75
2022-09-05T16:10:34.909Z,32.56
2022-09-05T16:10:39.980Z,32.44
2022-09-05T16:11:17.170Z,32.41
2022-09-05T16:13:53.345Z,32.37
2022-09-05T16:23:14.398Z,32.44
2022-09-05T16:23:24.619Z,32.41
2022-09-05T16:23:25.850Z,32.48
2022-09-05T16:25:04.519Z,32.40
2022-09-05T16:27:53.174Z,32.32
2022-09-05T16:30:33.570Z,32.30
2022-09-05T16:33:05.473Z,32.22
2022-09-05T16:35:37.934Z,32.10
2022-09-05T16:38:18.111Z,31.95
2022-09-05T16:40:55.006Z,31.86
2022-09-05T16:43:27.865Z,31.77
2022-09-05T16:46:40.828Z,31.62
2022-09-05T16:49:21.748Z,31.52
2022-09-05T16:52:13.535Z,31.42
2022-09-05T16:54:58.058Z,31.30
2022-09-05T16:57:32.537Z,31.18
2022-09-05T16:59:59.918Z,31.08
2022-09-05T17:02:41.655Z,30.98
2022-09-05T17:05:11.055Z,30.87
2022-09-05T17:08:02.718Z,30.75
2022-09-05T17:10:40.727Z,30.65
2022-09-05T17:13:12.618Z,30.56
2022-09-05T17:15:51.705Z,30.46
2022-09-05T17:18:25.269Z,30.37
2022-09-05T17:21:00.218Z,30.26
2022-09-05T17:27:21.235Z,30.13
2022-09-05T17:29:24.040Z,29.89
2022-09-05T17:32:47.252Z,29.66
2022-09-05T17:35:20.302Z,29.57
2022-09-05T17:38:44.387Z,29.43
2022-09-05T17:41:35.538Z,29.38
2022-09-05T17:44:39.169Z,29.29
2022-09-05T17:47:22.961Z,29.20
2022-09-05T17:50:18.685Z,29.11
2022-09-05T17:53:24.955Z,29.02
2022-09-05T17:55:49.736Z,28.95
2022-09-05T17:58:24.065Z,28.89
2022-09-05T18:01:04.524Z,28.79
2022-09-05T18:03:34.056Z,28.67
2022-09-05T18:06:04.194Z,28.59
2022-09-05T18:08:46.038Z,28.49
2022-09-05T18:11:25.315Z,28.39
2022-09-05T18:13:57.216Z,28.32
2022-09-05T18:16:38.638Z,28.24
2022-09-05T18:22:25.777Z,28.06
2022-09-05T18:25:30.904Z,27.94
2022-09-05T18:28:28.318Z,27.89
2022-09-05T18:31:18.124Z,27.80
2022-09-05T18:34:31.978Z,27.72
2022-09-05T18:36:58.915Z,27.71
2022-09-05T18:39:25.382Z,27.67
2022-09-05T18:42:26.164Z,27.59
2022-09-05T18:45:03.329Z,27.56
2022-09-05T18:48:01.629Z,27.49
2022-09-05T18:50:36.244Z,27.44
2022-09-05T18:53:12.829Z,27.36
2022-09-05T18:56:31.141Z,27.29
2022-09-05T18:59:09.994Z,27.24
2022-09-05T19:01:58.663Z,27.13
2022-09-05T19:04:39.521Z,27.11
2022-09-05T19:07:12.699Z,27.09
2022-09-05T19:10:35.894Z,27.07
2022-09-05T19:13:01.818Z,27.05
2022-09-05T19:15:42.348Z,27.00
2022-09-05T19:18:26.047Z,26.94
2022-09-05T19:21:11.896Z,26.84
2022-09-05T19:23:50.603Z,26.78
2022-09-05T19:26:17.626Z,26.73
2022-09-05T19:36:59.133Z,26.66
2022-09-05T19:37:02.251Z,26.59
2022-09-05T19:37:04.963Z,26.50
2022-09-05T19:37:39.677Z,26.40
2022-09-05T19:47:29.369Z,26.34
2022-09-05T19:47:44.709Z,26.30
2022-09-05T19:47:52.054Z,26.25
2022-09-05T19:48:38.385Z,26.23
2022-09-05T19:51:16.855Z,26.20
2022-09-05T19:53:53.984Z,26.16
2022-09-05T19:56:42.996Z,26.11
2022-09-05T19:59:19.797Z,26.08
2022-09-05T20:01:47.377Z,26.02
2022-09-05T20:04:18.493Z,25.96
2022-09-05T20:06:46.360Z,25.92
2022-09-05T20:09:21.313Z,25.86
2022-09-05T20:11:54.204Z,25.83
2022-09-05T20:14:32.290Z,25.78
2022-09-05T20:17:17.142Z,25.70
2022-09-05T20:19:44.791Z,25.64
2022-09-05T20:22:48.012Z,25.59
2022-09-05T20:25:07.962Z,25.56
2022-09-05T20:27:35.654Z,25.53
2022-09-05T20:30:05.741Z,25.47
2022-09-05T20:32:40.637Z,25.44
2022-09-05T20:38:58.354Z,25.37
2022-09-05T20:43:15.894Z,25.32
2022-09-05T20:43:23.464Z,25.25
2022-09-05T20:44:15.807Z,25.21
2022-09-05T20:50:30.755Z,25.19
2022-09-05T20:54:06.710Z,25.17
2022-09-05T20:54:26.981Z,25.11
2022-09-05T20:55:40.090Z,25.08
2022-09-05T20:58:37.823Z,25.08
2022-09-05T21:01:22.116Z,25.06
2022-09-05T21:04:00.473Z,25.06
2022-09-05T21:06:33.888Z,25.08
2022-09-05T21:09:25.336Z,25.14
2022-09-05T21:11:58.456Z,25.16
2022-09-05T21:14:28.102Z,25.16
2022-09-05T21:17:08.242Z,25.16
2022-09-05T21:19:43.831Z,25.17
2022-09-05T21:22:24.722Z,25.16
2022-09-05T21:25:15.414Z,25.15
2022-09-05T21:27:54.103Z,25.15
2022-09-05T21:30:26.580Z,25.15
2022-09-05T21:33:01.533Z,25.17
2022-09-05T21:35:34.518Z,25.18
2022-09-05T21:38:02.109Z,25.14
2022-09-05T21:40:28.645Z,25.09
2022-09-05T21:47:37.388Z,25.06
2022-09-05T21:47:38.728Z,25.04
2022-09-05T21:48:34.658Z,25.05
2022-09-05T21:51:11.518Z,25.04
2022-09-05T21:58:17.349Z,25.03
2022-09-05T21:59:24.252Z,25.03
2022-09-05T21:59:46.442Z,24.90
2022-09-05T22:02:10.981Z,24.91
2022-09-05T22:04:41.509Z,24.87
2022-09-05T22:07:14.212Z,24.82
2022-09-05T22:09:40.739Z,24.75
2022-09-05T22:12:30.101Z,24.66
2022-09-05T22:14:53.961Z,24.65
2022-09-05T22:17:22.231Z,24.61
2022-09-05T22:19:50.021Z,24.53
2022-09-05T22:22:17.671Z,24.55
2022-09-05T22:24:49.613Z,24.49
2022-09-05T22:27:19.821Z,24.47
2022-09-05T22:29:50.543Z,24.44
2022-09-05T22:32:17.974Z,24.41
2022-09-05T22:34:57.460Z,24.38
2022-09-05T22:37:24.000Z,24.36
2022-09-05T22:39:50.493Z,24.33
2022-09-05T22:42:17.017Z,24.33
2022-09-05T22:44:43.431Z,24.30
2022-09-05T22:47:10.732Z,24.26
2022-09-05T22:49:37.296Z,24.18
2022-09-05T22:52:08.446Z,24.08
2022-09-05T22:54:35.802Z,24.02
2022-09-05T22:57:04.244Z,23.93
2022-09-05T22:59:31.469Z,23.82
2022-09-05T23:01:58.152Z,23.80
2022-09-05T23:04:24.708Z,23.82
2022-09-05T23:06:51.315Z,23.75
2022-09-05T23:09:17.761Z,23.75
2022-09-05T23:11:44.257Z,23.69
2022-09-05T23:14:10.701Z,23.70
2022-09-05T23:16:37.137Z,23.68
2022-09-05T23:19:03.687Z,23.68
2022-09-05T23:21:30.707Z,23.61
2022-09-05T23:23:57.169Z,23.57
2022-09-05T23:26:23.860Z,23.49
2022-09-05T23:28:50.370Z,23.45
2022-09-05T23:31:16.932Z,23.45
2022-09-05T23:33:43.488Z,23.41
2022-09-05T23:36:15.442Z,23.43
2022-09-05T23:38:43.331Z,23.40
2022-09-05T23:41:12.393Z,23.39
2022-09-05T23:43:38.845Z,23.39
2022-09-05T23:46:05.631Z,23.40
2022-09-05T23:48:32.217Z,23.40
2022-09-05T23:51:08.175Z,23.38
2022-09-05T23:53:35.442Z,23.35
2022-09-05T23:56:03.201Z,23.34
2022-09-05T23:58:30.945Z,23.33
